Time;durP1;ratioP1;P1;durP2;ratioP2;P2;SDS_P1;SDS_P2;PMS_P1;PMS_P2;Temp;Humidity;BMP_temperature;BMP_pressure;BME280_temperature;BME280_humidity;BME280_pressure;Samples;Min_cycle;Max_cycle;Signal;HPM_P1;HPM_P2
2021/03/27 00:02:01;;;;;;;8.35;7.30;;;24.80;93.10;;;;;;5104382;28;20065;-44
2021/03/27 00:04:48;;;;;;;12.32;7.38;;;24.90;93.10;;;;;;5104212;28;20091;-44
2021/03/27 00:07:31;;;;;;;9.95;6.72;;;24.80;93.00;;;;;;5100855;28;20147;-49
2021/03/27 00:10:15;;;;;;;8.55;6.00;;;24.80;93.00;;;;;;5101258;28;20016;-50
2021/03/27 00:12:49;;;;;;;6.75;6.05;;;24.80;93.00;;;;;;5101365;28;20073;-52
2021/03/27 00:15:34;;;;;;;7.72;5.85;;;24.80;93.10;;;;;;5101052;28;20016;-45
2021/03/27 00:18:11;;;;;;;6.97;6.13;;;24.80;93.00;;;;;;5101642;28;20020;-46
2021/03/27 00:21:04;;;;;;;8.32;5.80;;;24.80;93.00;;;;;;5100254;28;20032;-47
2021/03/27 00:23:35;;;;;;;8.80;5.72;;;24.80;92.90;;;;;;5065011;28;20063;-49
2021/03/27 00:26:05;;;;;;;5.67;4.90;;;24.90;93.00;;;;;;5119744;28;20181;-48
2021/03/27 00:29:16;;;;;;;7.82;5.30;;;24.80;92.80;;;;;;5124326;28;20241;-48
2021/03/27 00:32:07;;;;;;;9.82;5.63;;;24.90;92.80;;;;;;5075323;28;20032;-49
2021/03/27 00:34:38;;;;;;;8.75;5.63;;;24.90;92.80;;;;;;5119777;28;20035;-48
2021/03/27 00:37:10;;;;;;;9.98;5.50;;;24.90;92.70;;;;;;5124619;28;20024;-45
2021/03/27 00:39:56;;;;;;;7.88;5.32;;;24.90;92.70;;;;;;5123305;28;20235;-54
2021/03/27 00:42:29;;;;;;;7.13;4.20;;;24.90;92.80;;;;;;5121454;28;20024;-46
2021/03/27 00:45:02;;;;;;;4.90;3.85;;;24.90;92.70;;;;;;5120982;28;20082;-47
2021/03/27 00:47:34;;;;;;;6.78;3.42;;;24.90;92.70;;;;;;5122845;28;20015;-47
2021/03/27 00:50:08;;;;;;;10.00;3.38;;;24.90;92.60;;;;;;5123129;28;20016;-49
2021/03/27 00:52:38;;;;;;;5.57;2.80;;;24.90;92.60;;;;;;5120673;28;20031;-45
2021/03/27 00:55:09;;;;;;;5.72;2.58;;;24.90;92.60;;;;;;5122649;28;20030;-47
2021/03/27 00:57:42;;;;;;;6.47;2.92;;;24.80;92.80;;;;;;5119736;28;20019;-49
2021/03/27 01:00:27;;;;;;;4.93;2.78;;;24.80;93.20;;;;;;5118641;28;20035;-52
2021/03/27 01:03:38;;;;;;;3.13;2.60;;;24.80;93.20;;;;;;5120172;28;20020;-50
2021/03/27 01:06:10;;;;;;;5.63;4.18;;;24.80;93.30;;;;;;5122830;28;20027;-48
2021/03/27 01:08:38;;;;;;;;;;;24.70;93.10;;;;;;5124374;28;20032;-49
2021/03/27 01:11:18;;;;;;;5.43;3.45;;;24.70;93.20;;;;;;5124574;28;20065;-47
2021/03/27 01:13:51;;;;;;;5.53;3.50;;;24.70;93.00;;;;;;5124329;28;20016;-48
2021/03/27 01:16:36;;;;;;;7.80;3.50;;;24.70;93.00;;;;;;5124765;28;20023;-49
2021/03/27 01:19:29;;;;;;;7.25;3.50;;;24.60;93.00;;;;;;5123948;28;20078;-45
2021/03/27 01:21:59;;;;;;;5.47;2.90;;;24.60;93.00;;;;;;5086602;28;20036;-48
2021/03/27 01:24:29;;;;;;;3.25;2.72;;;24.60;93.00;;;;;;5104954;28;20335;-45
2021/03/27 01:27:03;;;;;;;5.90;3.08;;;24.60;93.00;;;;;;5103246;28;20062;-46
2021/03/27 01:29:34;;;;;;;4.78;2.70;;;24.70;93.00;;;;;;5113155;28;20020;-51
2021/03/27 01:32:16;;;;;;;4.78;2.47;;;24.70;93.00;;;;;;5123780;28;20027;-45
2021/03/27 01:34:49;;;;;;;4.68;2.45;;;24.70;93.00;;;;;;5123975;28;20020;-53
2021/03/27 01:37:26;;;;;;;5.88;2.08;;;24.70;93.00;;;;;;5123747;28;20362;-50
2021/03/27 01:40:08;;;;;;;4.93;3.63;;;24.70;92.90;;;;;;5123884;28;20031;-56
2021/03/27 01:42:59;;;;;;;4.28;2.20;;;24.70;92.90;;;;;;5123773;28;20250;-50
2021/03/27 01:46:01;;;;;;;2.30;1.90;;;24.70;93.00;;;;;;5105757;28;20035;-54
2021/03/27 01:49:02;;;;;;;5.10;1.92;;;24.70;92.90;;;;;;5127514;28;20034;-47
2021/03/27 01:51:48;;;;;;;3.85;2.17;;;24.70;92.90;;;;;;5127840;28;20053;-48
2021/03/27 01:54:20;;;;;;;2.15;1.70;;;24.70;92.90;;;;;;5127235;28;20024;-45
2021/03/27 01:56:49;;;;;;;;;;;24.70;92.80;;;;;;5127621;28;20020;-51
2021/03/27 01:59:23;;;;;;;5.97;1.90;;;24.70;92.90;;;;;;5127066;28;19900;-45
2021/03/27 02:02:25;;;;;;;4.53;2.08;;;24.70;92.90;;;;;;5127068;28;20031;-45
2021/03/27 02:05:11;;;;;;;2.60;1.90;;;24.70;92.90;;;;;;5041381;28;20066;-47
2021/03/27 02:07:38;;;;;;;5.28;3.40;;;24.70;92.90;;;;;;5109972;28;20027;-48
2021/03/27 02:10:30;;;;;;;5.50;2.45;;;24.70;92.90;;;;;;5127173;28;20028;-44
2021/03/27 02:13:24;;;;;;;4.45;2.30;;;24.70;92.80;;;;;;5127163;28;20012;-53
2021/03/27 02:15:56;;;;;;;4.25;1.83;;;24.70;93.00;;;;;;5085246;28;20038;-56
2021/03/27 02:18:22;;;;;;;;;;;24.70;92.90;;;;;;5127387;28;20082;-50
2021/03/27 02:21:03;;;;;;;9.55;2.33;;;24.70;92.90;;;;;;5127002;28;19908;-50
2021/03/27 02:23:36;;;;;;;7.82;1.73;;;24.70;93.00;;;;;;5126704;28;20047;-49
2021/03/27 02:26:33;;;;;;;4.60;1.77;;;24.70;93.00;;;;;;5127016;28;20011;-57
2021/03/27 02:29:06;;;;;;;4.78;1.58;;;24.70;92.90;;;;;;5126528;28;20050;-55
2021/03/27 02:31:42;;;;;;;8.27;1.92;;;24.70;93.10;;;;;;5125925;28;20031;-55
2021/03/27 02:34:47;;;;;;;5.30;1.73;;;24.70;93.00;;;;;;5121826;28;20124;-51
2021/03/27 02:37:26;;;;;;;1.85;1.20;;;24.70;93.00;;;;;;5024209;28;20037;-47
2021/03/27 02:40:06;;;;;;;8.25;1.67;;;24.70;93.00;;;;;;5117061;28;20050;-45
2021/03/27 02:42:41;;;;;;;6.18;1.80;;;24.70;93.00;;;;;;5126499;28;20069;-52
2021/03/27 02:45:13;;;;;;;4.43;1.75;;;24.70;93.00;;;;;;5126560;28;20043;-48
2021/03/27 02:47:59;;;;;;;2.90;1.63;;;24.70;93.00;;;;;;5126426;28;20016;-51
2021/03/27 02:50:57;;;;;;;5.30;1.50;;;24.70;92.90;;;;;;5126682;28;20041;-49
2021/03/27 02:53:33;;;;;;;7.10;2.00;;;24.70;93.00;;;;;;5126070;28;20023;-51
2021/03/27 02:56:12;;;;;;;4.93;1.92;;;24.80;92.90;;;;;;5126558;28;20064;-55
2021/03/27 02:59:16;;;;;;;4.28;2.03;;;24.80;92.80;;;;;;5125426;28;20027;-54
2021/03/27 03:01:55;;;;;;;5.53;1.95;;;24.80;92.90;;;;;;5078343;28;20047;-48
2021/03/27 03:05:00;;;;;;;6.60;2.10;;;24.80;92.80;;;;;;5126022;28;20019;-56
2021/03/27 03:07:34;;;;;;;5.88;2.13;;;24.80;92.70;;;;;;5096083;28;20032;-59
2021/03/27 03:10:45;;;;;;;3.20;2.35;;;24.80;92.80;;;;;;5126160;28;20267;-52
2021/03/27 03:13:17;;;;;;;7.43;2.70;;;24.80;92.80;;;;;;5086731;28;20031;-52
2021/03/27 03:16:17;;;;;;;6.72;2.50;;;24.80;92.70;;;;;;5125817;28;20035;-57
2021/03/27 03:19:11;;;;;;;7.05;2.70;;;24.80;92.70;;;;;;5125600;28;20020;-52
2021/03/27 03:21:44;;;;;;;6.60;3.60;;;24.80;92.80;;;;;;5125790;28;20048;-48
2021/03/27 03:24:16;;;;;;;11.52;3.75;;;24.80;92.80;;;;;;5125606;28;20381;-51
2021/03/27 03:26:49;;;;;;;8.52;3.40;;;24.80;92.80;;;;;;5125965;28;20311;-59
2021/03/27 03:29:40;;;;;;;5.43;3.80;;;24.80;92.80;;;;;;5125242;28;20020;-54
2021/03/27 03:32:33;;;;;;;5.57;3.25;;;24.80;92.80;;;;;;5125297;28;20027;-53
2021/03/27 03:35:03;;;;;;;7.28;3.60;;;24.80;92.80;;;;;;5111941;28;20036;-58
2021/03/27 03:37:48;;;;;;;8.43;3.40;;;24.80;92.90;;;;;;5125273;28;20020;-54
2021/03/27 03:40:30;;;;;;;4.93;3.50;;;24.80;92.90;;;;;;5125459;28;20027;-51
2021/03/27 03:43:11;;;;;;;8.95;4.20;;;24.80;92.90;;;;;;5125138;28;20024;-55
2021/03/27 03:46:11;;;;;;;5.75;4.07;;;24.80;92.90;;;;;;5125335;28;20038;-48
2021/03/27 03:49:02;;;;;;;5.30;3.90;;;24.80;92.90;;;;;;5107373;28;20038;-46
2021/03/27 03:51:55;;;;;;;6.78;4.10;;;24.80;92.80;;;;;;5125484;28;20016;-47
2021/03/27 03:54:37;;;;;;;7.15;4.57;;;24.80;92.80;;;;;;5124888;28;20039;-48
2021/03/27 03:57:19;;;;;;;12.20;4.83;;;24.80;92.80;;;;;;5125224;28;20051;-43
2021/03/27 04:00:01;;;;;;;10.35;4.68;;;24.80;92.80;;;;;;5124770;28;20020;-52
2021/03/27 04:03:03;;;;;;;9.90;4.40;;;24.80;92.80;;;;;;5125070;28;20355;-53
2021/03/27 04:05:43;;;;;;;6.82;4.70;;;24.80;92.80;;;;;;5073540;28;20058;-48
2021/03/27 04:08:36;;;;;;;9.52;4.88;;;24.80;92.80;;;;;;5124714;28;20027;-46
2021/03/27 04:11:28;;;;;;;;;;;24.80;92.90;;;;;;5123864;28;20043;-52
2021/03/27 04:13:57;;;;;;;7.63;4.13;;;24.80;93.00;;;;;;5086125;28;19900;-54
2021/03/27 04:16:28;;;;;;;10.75;4.45;;;24.80;93.10;;;;;;5125311;28;20027;-47
2021/03/27 04:19:00;;;;;;;10.73;4.07;;;24.90;93.10;;;;;;5125100;28;20027;-47
2021/03/27 04:21:32;;;;;;;;;;;24.90;93.10;;;;;;5125682;28;20043;-49
2021/03/27 04:24:12;;;;;;;10.88;4.22;;;24.90;93.10;;;;;;5124753;28;19903;-47
2021/03/27 04:26:54;;;;;;;7.25;4.53;;;24.80;93.10;;;;;;5125432;28;20023;-46
2021/03/27 04:29:56;;;;;;;6.63;4.43;;;24.80;93.30;;;;;;5124858;28;20019;-49
2021/03/27 04:33:01;;;;;;;7.03;4.33;;;24.90;93.40;;;;;;5093510;28;20020;-50
2021/03/27 04:35:50;;;;;;;8.23;4.60;;;24.90;93.20;;;;;;5119969;28;20277;-50
2021/03/27 04:38:43;;;;;;;10.90;5.18;;;24.90;93.30;;;;;;5124781;28;20027;-44
2021/03/27 04:41:35;;;;;;;13.23;4.57;;;24.90;93.40;;;;;;5125013;28;20031;-44
2021/03/27 04:44:17;;;;;;;13.13;5.15;;;24.90;93.60;;;;;;5124848;28;20383;-46
2021/03/27 04:46:57;;;;;;;13.53;4.83;;;24.90;93.40;;;;;;5125175;28;20102;-47
2021/03/27 04:49:32;;;;;;;15.45;5.15;;;24.90;93.40;;;;;;5124638;28;20039;-48
2021/03/27 04:52:08;;;;;;;11.75;4.80;;;24.90;93.70;;;;;;5124749;28;20011;-45
2021/03/27 04:54:44;;;;;;;9.63;5.20;;;24.90;93.50;;;;;;5124547;28;20020;-50
2021/03/27 04:57:35;;;;;;;10.55;5.50;;;24.90;93.40;;;;;;5124644;28;20327;-49
2021/03/27 05:00:36;;;;;;;11.10;5.22;;;24.90;93.50;;;;;;5124658;28;20027;-50
2021/03/27 05:03:18;;;;;;;6.10;4.68;;;24.80;93.50;;;;;;5124564;28;20023;-46
2021/03/27 05:06:00;;;;;;;11.33;5.43;;;24.90;93.70;;;;;;5124843;28;20028;-45
2021/03/27 05:09:11;;;;;;;12.05;5.60;;;24.90;93.70;;;;;;5124562;28;20015;-48
2021/03/27 05:12:01;;;;;;;9.05;5.78;;;24.80;94.10;;;;;;5125100;28;20045;-44
2021/03/27 05:14:52;;;;;;;10.70;5.40;;;24.70;94.30;;;;;;5124302;28;20016;-47
2021/03/27 05:17:43;;;;;;;12.10;6.00;;;24.70;94.30;;;;;;5124440;28;20007;-48
2021/03/27 05:20:45;;;;;;;9.55;5.50;;;24.70;94.30;;;;;;5124604;28;20015;-48
2021/03/27 05:23:56;;;;;;;13.10;5.83;;;24.70;94.50;;;;;;5072398;28;20173;-47
2021/03/27 05:26:35;;;;;;;12.40;6.07;;;24.60;94.10;;;;;;5025990;28;20509;-50
2021/03/27 05:29:48;;;;;;;14.30;6.82;;;24.60;94.30;;;;;;5115947;28;20141;-48
2021/03/27 05:32:45;;;;;;;10.57;6.85;;;24.60;94.50;;;;;;5128053;28;20015;-44
2021/03/27 05:35:38;;;;;;;13.18;7.78;;;24.60;94.80;;;;;;5128347;28;20219;-49
2021/03/27 05:38:08;;;;;;;;;;;24.60;95.00;;;;;;5128596;28;20041;-47
2021/03/27 05:40:59;;;;;;;20.33;9.20;;;24.50;95.10;;;;;;5128113;28;19939;-41
2021/03/27 05:43:38;;;;;;;14.73;9.05;;;24.50;95.20;;;;;;5127958;28;20027;-48
2021/03/27 05:46:42;;;;;;;14.70;10.48;;;24.50;95.20;;;;;;5128282;28;20011;-45
2021/03/27 05:49:54;;;;;;;15.05;10.52;;;24.60;95.10;;;;;;5109522;28;20172;-45
2021/03/27 05:52:51;;;;;;;13.65;10.90;;;24.50;95.00;;;;;;5088854;28;20039;-50
2021/03/27 05:55:36;;;;;;;20.02;12.63;;;24.60;95.10;;;;;;5127936;28;20028;-47
2021/03/27 05:58:15;;;;;;;20.63;12.90;;;24.60;95.00;;;;;;5127842;28;20028;-47
2021/03/27 06:01:00;;;;;;;20.63;13.07;;;24.60;95.00;;;;;;5127863;28;20192;-46
2021/03/27 06:03:36;;;;;;;15.38;12.23;;;24.60;95.00;;;;;;5127667;28;20023;-49
2021/03/27 06:06:24;;;;;;;15.15;12.38;;;24.50;94.90;;;;;;5127857;28;20105;-49
2021/03/27 06:09:13;;;;;;;15.60;12.50;;;24.60;94.80;;;;;;5127444;28;20020;-45
2021/03/27 06:11:43;;;;;;;14.40;12.55;;;24.60;94.80;;;;;;5080220;28;20035;-48
2021/03/27 06:14:16;;;;;;;16.73;12.75;;;24.60;94.80;;;;;;5127267;28;20043;-45
2021/03/27 06:17:01;;;;;;;18.27;13.18;;;24.60;94.70;;;;;;5127955;28;20027;-45
2021/03/27 06:20:04;;;;;;;18.55;13.20;;;24.60;94.90;;;;;;5127323;28;20201;-45
2021/03/27 06:22:56;;;;;;;14.43;12.40;;;24.60;94.70;;;;;;5127288;28;20051;-51
2021/03/27 06:25:54;;;;;;;20.53;14.33;;;24.60;94.60;;;;;;5127416;28;20027;-46
2021/03/27 06:28:42;;;;;;;17.25;13.93;;;24.60;94.60;;;;;;5127239;28;20220;-50
2021/03/27 06:31:39;;;;;;;18.15;14.00;;;24.60;94.50;;;;;;5126998;28;20348;-49
2021/03/27 06:34:30;;;;;;;17.33;13.25;;;24.60;94.50;;;;;;5126076;28;20024;-44
2021/03/27 06:37:44;;;;;;;14.15;12.63;;;24.60;94.50;;;;;;5127117;28;20019;-44
2021/03/27 06:40:26;;;;;;;14.93;12.75;;;24.60;94.30;;;;;;5082107;28;20290;-44
2021/03/27 06:43:35;;;;;;;17.33;12.77;;;24.60;94.30;;;;;;5126864;28;20041;-47
2021/03/27 06:46:31;;;;;;;15.68;12.05;;;24.60;94.30;;;;;;5077163;28;20047;-43
2021/03/27 06:49:35;;;;;;;17.23;12.40;;;24.60;94.30;;;;;;5061239;28;20069;-47
2021/03/27 06:52:20;;;;;;;16.02;12.57;;;24.60;94.20;;;;;;5126724;28;20185;-49
2021/03/27 06:54:53;;;;;;;17.70;14.00;;;24.60;94.20;;;;;;5126839;28;20015;-49
2021/03/27 06:57:36;;;;;;;18.58;14.50;;;24.60;94.20;;;;;;5126653;28;20064;-44
2021/03/27 07:00:35;;;;;;;17.92;15.18;;;24.60;94.20;;;;;;5126628;28;20030;-45
2021/03/27 07:03:40;;;;;;;19.30;15.30;;;24.60;94.20;;;;;;5117752;28;20084;-44
2021/03/27 07:06:28;;;;;;;18.85;15.90;;;24.60;94.20;;;;;;5024144;28;20251;-46
2021/03/27 07:09:09;;;;;;;18.92;16.00;;;24.50;94.20;;;;;;5114368;28;20019;-49
2021/03/27 07:11:58;;;;;;;19.23;16.80;;;24.50;94.30;;;;;;5107608;28;20028;-50
2021/03/27 07:14:39;;;;;;;21.75;17.17;;;24.50;94.40;;;;;;5114917;28;20312;-44
2021/03/27 07:17:28;;;;;;;22.35;17.13;;;24.50;94.30;;;;;;5126267;28;20023;-50
2021/03/27 07:20:18;;;;;;;19.88;16.95;;;24.50;94.30;;;;;;5126300;28;20023;-46
2021/03/27 07:22:59;;;;;;;18.35;16.17;;;24.50;94.30;;;;;;5125597;28;20058;-49
2021/03/27 07:25:52;;;;;;;17.75;15.35;;;24.50;94.30;;;;;;5125746;28;20027;-50
2021/03/27 07:28:31;;;;;;;19.63;15.38;;;24.50;94.20;;;;;;5076349;28;20211;-52
2021/03/27 07:31:16;;;;;;;18.88;16.42;;;24.50;94.30;;;;;;5112219;28;20084;-50
2021/03/27 12:35:37;;;;;;;18.80;14.50;;;23.80;96.50;;;;;;5081137;28;20428;-41
2021/03/27 12:38:07;;;;;;;17.92;13.95;;;24.20;95.50;;;;;;5080900;28;20033;-40
2021/03/27 12:40:40;;;;;;;19.25;13.90;;;24.30;95.50;;;;;;5080943;28;20017;-43
2021/03/27 12:43:19;;;;;;;16.63;13.15;;;24.30;95.30;;;;;;5081030;28;20087;-46
2021/03/27 12:46:15;;;;;;;16.80;13.20;;;24.30;95.20;;;;;;5080836;28;20324;-48
2021/03/27 12:48:58;;;;;;;17.52;12.45;;;24.40;95.20;;;;;;5080907;28;20028;-48
2021/03/27 12:51:44;;;;;;;14.27;11.43;;;24.40;95.10;;;;;;5081026;28;20080;-52
2021/03/27 12:54:34;;;;;;;11.95;10.70;;;24.40;94.80;;;;;;5080905;28;20025;-53
2021/03/27 12:57:37;;;;;;;14.73;10.60;;;24.40;94.70;;;;;;5080676;28;20229;-46
2021/03/27 13:00:39;;;;;;;14.35;10.75;;;24.40;94.70;;;;;;5080542;28;20025;-47
2021/03/27 13:03:41;;;;;;;14.00;11.50;;;24.40;94.60;;;;;;5080674;28;20378;-47
2021/03/27 13:06:25;;;;;;;13.93;10.73;;;24.40;94.60;;;;;;5079279;28;20041;-47
2021/03/27 13:09:33;;;;;;;14.02;11.27;;;24.40;94.50;;;;;;5080318;28;20040;-51
2021/03/27 13:12:11;;;;;;;13.35;10.93;;;24.40;94.50;;;;;;5080631;28;20025;-51
2021/03/27 13:15:05;;;;;;;13.85;11.48;;;24.40;94.50;;;;;;5080662;28;20075;-47
2021/03/27 13:18:10;;;;;;;13.38;11.32;;;24.40;94.50;;;;;;5080047;28;20045;-51
2021/03/27 13:20:53;;;;;;;12.48;11.00;;;24.40;94.50;;;;;;5079899;28;20012;-56
2021/03/27 13:23:28;;;;;;;14.82;11.25;;;24.40;94.50;;;;;;5080305;28;20048;-45
2021/03/27 13:26:17;;;;;;;14.07;11.23;;;24.40;94.40;;;;;;5079836;28;20025;-49
2021/03/27 13:29:08;;;;;;;13.07;11.68;;;24.40;94.70;;;;;;5080007;28;20079;-46
2021/03/27 13:31:43;;;;;;;13.23;11.27;;;24.50;94.80;;;;;;5079902;28;20023;-46
2021/03/27 13:34:31;;;;;;;15.93;13.10;;;24.50;94.80;;;;;;5078955;28;20094;-54
2021/03/27 13:37:14;;;;;;;18.88;14.48;;;24.40;95.10;;;;;;5066386;28;20035;-49
2021/03/27 13:39:48;;;;;;;16.60;13.07;;;24.40;95.20;;;;;;5066559;28;20071;-44
2021/03/27 13:42:44;;;;;;;20.05;12.88;;;24.50;95.10;;;;;;5066621;28;20012;-42
2021/03/27 13:45:21;;;;;;;20.85;13.05;;;24.40;95.30;;;;;;5066238;28;20059;-50
2021/03/27 13:48:25;;;;;;;19.00;14.05;;;24.40;95.40;;;;;;5067051;28;20049;-48
2021/03/27 13:51:13;;;;;;;19.75;14.38;;;24.40;95.60;;;;;;5066337;28;20033;-49
2021/03/27 13:54:04;;;;;;;20.38;14.93;;;24.50;95.70;;;;;;5066324;28;20029;-47
2021/03/27 13:57:08;;;;;;;18.40;15.52;;;24.50;95.50;;;;;;5065919;28;20013;-41
2021/03/27 13:59:52;;;;;;;20.40;14.93;;;24.50;95.60;;;;;;5066322;28;20020;-40
2021/03/27 14:02:33;;;;;;;18.73;15.80;;;24.50;95.60;;;;;;5066146;28;20021;-41
2021/03/27 14:05:20;;;;;;;17.17;14.95;;;24.60;95.70;;;;;;5065855;28;20254;-43
2021/03/27 14:08:07;;;;;;;23.75;15.10;;;24.60;95.70;;;;;;5065677;28;20032;-45
2021/03/27 14:10:52;;;;;;;18.85;14.93;;;24.60;95.70;;;;;;5065981;28;20013;-47
2021/03/27 14:13:23;;;;;;;18.95;15.50;;;24.60;95.80;;;;;;5065648;28;20098;-44
2021/03/27 14:16:21;;;;;;;22.42;16.73;;;24.60;95.80;;;;;;5065707;28;20315;-42
2021/03/27 14:19:19;;;;;;;19.58;17.10;;;24.60;95.90;;;;;;5065885;28;20028;-45
2021/03/27 14:22:21;;;;;;;22.33;17.67;;;24.60;96.00;;;;;;5065419;28;20017;-42
2021/03/27 14:25:11;;;;;;;20.98;18.08;;;24.60;96.00;;;;;;5065790;28;20315;-45
2021/03/27 14:27:42;;;;;;;20.00;17.88;;;24.60;96.10;;;;;;5060564;28;20039;-46
2021/03/27 14:30:47;;;;;;;20.20;17.02;;;24.60;96.10;;;;;;5065423;28;20017;-50
2021/03/27 14:33:39;;;;;;;17.58;13.45;;;24.60;96.20;;;;;;5065148;28;20032;-51
2021/03/27 14:36:25;;;;;;;14.45;12.10;;;24.60;95.70;;;;;;5065516;28;20074;-44
2021/03/27 14:39:17;;;;;;;14.50;11.35;;;24.50;95.10;;;;;;5065567;28;20033;-41
2021/03/27 14:42:13;;;;;;;15.70;10.30;;;24.50;95.00;;;;;;5065292;28;20021;-43
2021/03/27 14:45:24;;;;;;;12.70;11.07;;;24.50;94.50;;;;;;5065502;28;20033;-42
2021/03/27 14:48:14;;;;;;;15.63;11.00;;;24.40;94.90;;;;;;5063254;28;20087;-44
2021/03/27 14:51:03;;;;;;;16.45;11.52;;;24.30;95.10;;;;;;5065183;28;20269;-43
2021/03/27 14:53:51;;;;;;;16.45;11.75;;;24.30;95.10;;;;;;5064959;28;20036;-44
2021/03/27 14:56:24;;;;;;;14.68;11.32;;;24.30;95.30;;;;;;5065083;28;20021;-50
2021/03/27 14:59:19;;;;;;;16.48;12.13;;;24.30;95.30;;;;;;5063751;28;20051;-42
2021/03/27 15:02:29;;;;;;;19.33;11.70;;;24.40;95.20;;;;;;5064296;28;20028;-42
2021/03/27 15:05:15;;;;;;;14.98;12.25;;;24.40;95.30;;;;;;5034158;28;20043;-43
2021/03/27 15:08:02;;;;;;;18.77;12.27;;;24.30;95.40;;;;;;5064478;28;20032;-42
2021/03/27 15:10:48;;;;;;;16.00;12.98;;;24.30;95.50;;;;;;5064927;28;20035;-42
2021/03/27 15:13:52;;;;;;;14.85;10.18;;;24.30;95.50;;;;;;5064557;28;20037;-44
2021/03/27 15:16:25;;;;;;;13.50;10.27;;;24.40;95.30;;;;;;5065025;28;20021;-43
2021/03/27 15:19:04;;;;;;;12.85;9.55;;;24.40;95.40;;;;;;5064954;28;20092;-43
2021/03/27 15:21:45;;;;;;;11.32;9.27;;;24.40;95.50;;;;;;5064691;28;20024;-41
2021/03/27 15:24:33;;;;;;;9.90;8.15;;;24.50;95.30;;;;;;5064863;28;20033;-42
2021/03/27 15:27:17;;;;;;;12.88;8.25;;;24.50;95.10;;;;;;5064411;28;20027;-46
2021/03/27 15:30:00;;;;;;;11.80;7.50;;;24.50;95.30;;;;;;5064968;28;20028;-51
2021/03/27 15:32:39;;;;;;;12.25;7.97;;;24.50;95.20;;;;;;5064373;28;20032;-45
2021/03/27 15:35:21;;;;;;;9.90;7.55;;;24.50;95.30;;;;;;5064264;28;20359;-45
2021/03/27 15:38:22;;;;;;;10.40;6.07;;;24.50;95.40;;;;;;5064253;28;20025;-44
2021/03/27 15:41:03;;;;;;;9.68;6.32;;;24.50;95.20;;;;;;5042415;28;20216;-44
2021/03/27 15:43:47;;;;;;;9.32;6.45;;;24.50;95.20;;;;;;5064439;28;20213;-43
2021/03/27 15:46:27;;;;;;;9.55;6.15;;;24.40;95.20;;;;;;5062681;28;20045;-43
2021/03/27 15:49:05;;;;;;;10.40;6.57;;;24.40;95.30;;;;;;5054047;28;20025;-45
2021/03/27 15:51:42;;;;;;;14.38;7.13;;;24.40;95.60;;;;;;5041899;28;20025;-45
2021/03/27 15:54:29;;;;;;;11.52;6.65;;;24.30;95.60;;;;;;5043935;28;20025;-47
2021/03/27 15:57:07;;;;;;;10.68;6.22;;;24.30;95.50;;;;;;5042487;28;20221;-47
2021/03/27 16:00:04;;;;;;;15.20;6.10;;;24.30;95.30;;;;;;5043764;28;20036;-46
2021/03/27 16:02:48;;;;;;;10.05;5.65;;;24.30;95.40;;;;;;5043856;28;20010;-45
2021/03/27 16:05:28;;;;;;;11.95;5.55;;;24.30;95.40;;;;;;5044023;28;20020;-41
2021/03/27 16:08:00;;;;;;;9.13;5.63;;;24.30;95.50;;;;;;5043740;28;20028;-43
2021/03/27 16:10:37;;;;;;;9.77;6.32;;;24.20;95.60;;;;;;5043689;28;20260;-48
2021/03/27 16:13:22;;;;;;;14.80;7.45;;;24.20;95.60;;;;;;5042543;28;20030;-45
2021/03/27 16:15:57;;;;;;;13.07;6.85;;;24.20;95.70;;;;;;5043803;28;20017;-43
2021/03/27 16:18:36;;;;;;;12.32;7.88;;;24.20;95.90;;;;;;5044052;28;20047;-44
2021/03/27 16:21:24;;;;;;;10.85;7.70;;;24.10;96.00;;;;;;5043742;28;20017;-49
2021/03/27 16:24:08;;;;;;;9.30;6.13;;;24.10;95.90;;;;;;5043436;28;20084;-43
2021/03/27 16:26:58;;;;;;;11.77;6.45;;;24.10;95.70;;;;;;5043830;28;20024;-51
2021/03/27 16:29:40;;;;;;;10.52;5.00;;;24.10;95.60;;;;;;5044344;28;20076;-48
2021/03/27 16:32:48;;;;;;;10.38;5.22;;;24.00;95.80;;;;;;5043684;28;20028;-45
2021/03/27 16:35:29;;;;;;;9.55;4.88;;;24.10;95.70;;;;;;4995277;28;20086;-44
2021/03/27 16:38:11;;;;;;;6.05;4.38;;;24.10;95.70;;;;;;5043271;28;20053;-43
2021/03/27 16:41:04;;;;;;;9.00;4.43;;;24.10;95.60;;;;;;5043566;28;20088;-43
2021/03/27 16:43:53;;;;;;;8.05;4.30;;;24.10;95.70;;;;;;5043772;28;20034;-44
2021/03/27 16:46:41;;;;;;;7.55;4.38;;;24.10;95.70;;;;;;5043695;28;20092;-45
2021/03/27 16:49:11;;;;;;;6.53;3.70;;;24.20;95.70;;;;;;5013057;28;20041;-44
2021/03/27 16:51:56;;;;;;;7.53;3.83;;;24.10;95.50;;;;;;5043760;28;20018;-46
2021/03/27 16:54:41;;;;;;;5.95;3.55;;;24.20;95.50;;;;;;5043565;28;20053;-47
2021/03/27 16:57:24;;;;;;;6.70;3.70;;;24.20;95.50;;;;;;5043615;28;20022;-51
2021/03/27 17:00:02;;;;;;;5.20;3.55;;;24.20;95.50;;;;;;5043733;28;20029;-44
2021/03/27 17:02:42;;;;;;;5.32;3.70;;;24.20;95.30;;;;;;5043214;28;20048;-44
2021/03/27 17:05:23;;;;;;;5.85;3.40;;;24.20;95.60;;;;;;5043273;28;20040;-43
2021/03/27 17:08:21;;;;;;;5.97;3.30;;;24.20;95.40;;;;;;5043180;28;20018;-43
2021/03/27 17:11:10;;;;;;;4.72;3.30;;;24.10;95.30;;;;;;5014631;28;20078;-49
2021/03/27 17:13:57;;;;;;;5.72;2.92;;;24.20;95.40;;;;;;5047161;28;20021;-47
2021/03/27 17:17:01;;;;;;;5.50;3.40;;;24.20;95.30;;;;;;5046665;28;20021;-44
2021/03/27 17:19:49;;;;;;;8.45;3.63;;;24.20;95.40;;;;;;5047220;28;20014;-49
2021/03/27 17:22:33;;;;;;;4.38;3.00;;;24.20;95.40;;;;;;5046931;28;20028;-44
2021/03/27 17:25:24;;;;;;;7.38;3.30;;;24.20;95.40;;;;;;5046929;28;20026;-44
2021/03/27 17:28:09;;;;;;;5.80;3.28;;;24.20;95.30;;;;;;5046768;28;20028;-46
2021/03/27 17:30:43;;;;;;;5.28;2.97;;;24.20;95.30;;;;;;5046909;28;20026;-44
2021/03/27 17:33:16;;;;;;;5.38;2.85;;;24.20;95.40;;;;;;5046425;28;20067;-45
2021/03/27 17:36:05;;;;;;;;;;;24.20;95.40;;;;;;5047026;28;20226;-46
2021/03/27 17:39:13;;;;;;;4.53;2.60;;;24.30;95.40;;;;;;5027337;28;20232;-46
2021/03/27 17:42:22;;;;;;;5.78;2.88;;;24.30;95.30;;;;;;5026207;28;20033;-48
2021/03/27 17:45:15;;;;;;;5.95;2.72;;;24.30;95.20;;;;;;4985463;28;20027;-48
2021/03/27 17:48:28;;;;;;;5.32;3.17;;;24.20;95.20;;;;;;4985641;28;20049;-47
2021/03/27 17:51:00;;;;;;;7.65;5.07;;;24.30;95.30;;;;;;5025856;28;20325;-50
2021/03/27 17:53:42;;;;;;;13.75;7.60;;;24.20;95.40;;;;;;5046513;28;20034;-51
2021/03/27 17:56:36;;;;;;;8.00;5.13;;;24.20;95.40;;;;;;5046818;28;20099;-46
2021/03/27 17:59:20;;;;;;;7.38;5.47;;;24.20;95.50;;;;;;5036485;28;20025;-45
2021/03/27 18:02:01;;;;;;;7.18;5.03;;;24.20;95.60;;;;;;5046280;28;20030;-45
2021/03/27 18:04:30;;;;;;;7.95;4.70;;;24.20;95.50;;;;;;5046487;28;20209;-53
2021/03/27 18:07:22;;;;;;;7.80;4.10;;;24.30;95.60;;;;;;5046354;28;20021;-48
2021/03/27 18:09:58;;;;;;;6.75;4.30;;;24.20;95.60;;;;;;5046072;28;20041;-47
2021/03/27 18:12:32;;;;;;;6.18;3.85;;;24.20;95.60;;;;;;5046739;28;20052;-45
2021/03/27 18:15:19;;;;;;;7.95;4.57;;;24.20;95.50;;;;;;5044998;28;20313;-47
2021/03/27 18:18:07;;;;;;;5.55;4.22;;;24.20;95.50;;;;;;5046203;28;20344;-46
2021/03/27 18:20:46;;;;;;;8.93;5.38;;;24.20;95.40;;;;;;5045809;28;20306;-51
2021/03/27 18:23:14;;;;;;;11.15;4.30;;;24.20;95.40;;;;;;5046078;28;20027;-45
2021/03/27 18:25:54;;;;;;;8.55;3.83;;;24.20;95.50;;;;;;5045785;28;20052;-47
2021/03/27 18:28:43;;;;;;;12.48;4.15;;;24.20;95.50;;;;;;5045748;28;20116;-45
2021/03/27 18:31:23;;;;;;;10.05;3.67;;;24.20;95.50;;;;;;5034820;28;20034;-44
2021/03/27 18:34:14;;;;;;;7.65;3.60;;;24.20;95.50;;;;;;5045810;28;20206;-44
2021/03/27 18:36:47;;;;;;;10.13;3.67;;;24.20;95.40;;;;;;5045653;28;20225;-45
2021/03/27 18:39:43;;;;;;;9.73;4.45;;;24.20;95.40;;;;;;5046058;28;20028;-45
2021/03/27 18:42:33;;;;;;;8.25;4.03;;;24.20;95.40;;;;;;5046171;28;20022;-51
2021/03/27 18:45:03;;;;;;;8.20;4.40;;;24.20;95.20;;;;;;5045432;28;20032;-42
2021/03/27 18:47:44;;;;;;;7.68;4.50;;;24.20;95.30;;;;;;5044032;28;20152;-43
2021/03/27 18:50:40;;;;;;;9.25;4.13;;;24.20;95.40;;;;;;5045918;28;20340;-48
2021/03/27 18:53:18;;;;;;;116.72;9.82;;;24.20;95.10;;;;;;5045640;28;20221;-46
2021/03/27 18:55:52;;;;;;;34.63;5.85;;;24.20;95.10;;;;;;5045766;28;20026;-50
2021/03/27 18:58:23;;;;;;;11.00;4.20;;;24.10;95.20;;;;;;5045826;28;20089;-45
2021/03/27 19:00:51;;;;;;;8.63;4.32;;;24.20;95.50;;;;;;5045545;28;20028;-54
2021/03/27 19:03:26;;;;;;;7.82;3.88;;;24.10;95.70;;;;;;5045808;28;20017;-42
2021/03/27 19:06:08;;;;;;;7.20;3.72;;;24.10;95.50;;;;;;5045604;28;20068;-47
2021/03/27 19:08:49;;;;;;;7.95;3.97;;;24.10;95.70;;;;;;5045452;28;20021;-47
2021/03/27 19:11:32;;;;;;;5.82;3.10;;;24.10;95.70;;;;;;5044832;28;20033;-45
2021/03/27 19:14:23;;;;;;;6.82;2.90;;;24.10;95.60;;;;;;5045051;28;20074;-49
2021/03/27 19:16:53;;;;;;;4.45;2.70;;;24.10;95.50;;;;;;5045055;28;20057;-48